createdAt,value
2018-11-13T04:06:35.883Z,6.86
2018-11-13T04:07:35.816Z,15.44
2018-11-13T04:08:35.774Z,18.12
2018-11-13T04:09:35.733Z,19.07
2018-11-13T04:10:35.686Z,20.40
2018-11-13T04:11:35.645Z,20.60
2018-11-13T04:12:35.603Z,21.36
2018-11-13T04:13:35.559Z,22.50
2018-11-13T04:14:35.529Z,23.27
2018-11-13T04:15:35.484Z,24.69
2018-11-13T04:16:35.444Z,24.13
2018-11-13T04:17:35.404Z,23.84
2018-11-13T04:18:35.355Z,23.74
2018-11-13T04:19:35.318Z,22.60
2018-11-13T04:20:35.278Z,23.08
2018-11-13T04:21:35.239Z,23.17
2018-11-13T04:22:35.204Z,22.60
2018-11-13T04:23:35.161Z,22.60
2018-11-13T04:24:35.121Z,24.51
2018-11-13T04:25:35.077Z,24.51
2018-11-13T04:26:35.045Z,24.51
2018-11-13T04:27:35.009Z,26.03
2018-11-13T04:28:34.964Z,25.94
2018-11-13T04:29:34.925Z,25.65
2018-11-13T04:30:34.935Z,25.18
2018-11-13T04:31:34.853Z,24.69
2018-11-13T04:32:34.810Z,25.84
2018-11-13T04:33:34.762Z,26.51
2018-11-13T04:34:34.730Z,23.44
2018-11-13T04:35:34.689Z,14.58
2018-11-13T04:36:34.650Z,14.96
2018-11-13T04:37:34.611Z,12.20
2018-11-13T04:38:34.567Z,22.22
2018-11-13T04:39:34.529Z,23.65
2018-11-13T04:40:34.493Z,24.32
2018-11-13T04:41:34.516Z,25.27
2018-11-13T04:42:41.477Z,24.79
2018-11-13T04:43:34.477Z,17.72
2018-11-13T04:44:39.065Z,17.45
2018-11-13T04:45:35.879Z,22.03
2018-11-13T04:47:35.090Z,22.03
2018-11-13T04:48:37.245Z,20.78
2018-11-13T04:49:35.155Z,21.64
2018-11-13T10:25:10.693Z,76.50
2018-11-13T10:26:20.624Z,74.98
2018-11-13T10:30:51.155Z,76.21
2018-11-13T10:31:50.650Z,74.98
2018-11-13T10:32:37.661Z,77.74
2018-11-13T10:33:36.956Z,75.93
2018-11-13T10:41:03.227Z,72.39
2018-11-13T10:42:03.052Z,72.58
2018-11-13T10:43:03.022Z,71.92
2018-11-13T10:44:02.968Z,72.58
2018-11-13T10:45:02.930Z,72.87
2018-11-13T10:46:02.902Z,72.87
2018-11-13T10:47:02.860Z,72.30
2018-11-13T10:48:02.817Z,73.44
2018-11-13T10:49:02.796Z,75.35
2018-11-13T10:50:02.747Z,75.64
2018-11-13T10:51:02.702Z,75.35
2018-11-13T10:52:02.664Z,74.21
2018-11-13T10:53:02.624Z,73.35
2018-11-13T10:54:02.594Z,74.88
2018-11-13T10:55:02.555Z,75.07
2018-11-13T10:56:02.517Z,76.12
2018-11-13T10:57:02.479Z,73.83
2018-11-13T10:58:02.434Z,74.73
2018-11-13T10:59:02.398Z,77.30
2018-11-13T11:00:02.362Z,78.36
2018-11-13T11:01:02.327Z,79.50
2018-11-13T11:02:02.284Z,79.31
2018-11-13T11:03:02.434Z,81.89
2018-11-13T11:04:02.210Z,84.85
2018-11-13T11:05:02.169Z,83.04
2018-11-13T11:06:02.139Z,84.19
2018-11-13T11:07:02.098Z,85.14
2018-11-13T11:08:02.069Z,84.76
2018-11-13T11:09:02.027Z,87.24
2018-11-13T11:10:01.987Z,87.72
2018-11-13T11:11:01.949Z,85.62
2018-11-13T11:12:01.910Z,87.86
2018-11-13T11:13:01.929Z,85.09
2018-11-13T11:14:02.029Z,85.75
2018-11-13T11:15:01.802Z,86.90
2018-11-13T11:16:01.763Z,87.95
2018-11-13T11:17:01.721Z,86.67
2018-11-13T11:18:01.773Z,79.17
2018-11-13T11:19:01.734Z,81.95
2018-11-13T11:20:01.614Z,84.66
2018-11-13T11:21:01.580Z,84.56
2018-11-13T11:22:01.537Z,84.95
2018-11-13T11:23:01.528Z,82.18
2018-11-13T11:24:01.550Z,82.28
2018-11-13T11:25:01.436Z,83.42
2018-11-13T11:26:01.394Z,81.99
2018-11-13T11:27:01.355Z,82.46
2018-11-13T11:28:01.327Z,83.80
2018-11-13T11:29:01.284Z,83.80
2018-11-13T11:30:01.238Z,85.42
2018-11-13T11:31:01.297Z,80.19
2018-11-13T11:32:01.175Z,84.66
2018-11-13T11:33:01.153Z,84.33
2018-11-13T11:34:01.091Z,83.99
2018-11-13T11:35:01.054Z,81.76
2018-11-13T11:36:01.016Z,80.04
2018-11-13T11:37:00.976Z,83.04
2018-11-13T11:38:00.946Z,81.27
2018-11-13T11:39:01.009Z,80.99
2018-11-13T11:40:00.869Z,80.65
2018-11-13T11:41:00.882Z,81.51
2018-11-13T11:42:00.794Z,81.79
2018-11-13T11:43:00.756Z,82.08
2018-11-13T11:44:00.720Z,83.23
2018-11-13T11:45:00.682Z,81.70
2018-11-13T11:46:00.649Z,82.75
2018-11-13T11:47:00.610Z,84.28
2018-11-13T11:48:00.570Z,83.57
2018-11-13T11:49:00.543Z,83.86
2018-11-13T11:50:00.500Z,83.86
2018-11-13T11:51:00.461Z,83.57
2018-11-13T11:52:00.423Z,83.76
2018-11-13T11:53:00.388Z,83.00
2018-11-13T11:54:00.389Z,82.04
2018-11-13T11:55:00.309Z,80.80
2018-11-13T11:56:00.272Z,82.04
2018-11-13T11:57:00.233Z,81.85
2018-11-13T11:58:00.202Z,80.70
2018-11-13T11:59:00.163Z,81.27
2018-11-13T12:00:00.125Z,82.32
2018-11-13T12:01:00.096Z,80.99
2018-11-13T12:02:00.091Z,82.32
2018-11-13T12:03:00.016Z,81.27
2018-11-13T12:03:59.975Z,81.09
2018-11-13T12:04:59.944Z,81.03
2018-11-13T12:05:59.900Z,79.46
2018-11-13T12:06:59.862Z,79.22
2018-11-13T12:07:59.837Z,72.36
2018-11-13T12:08:59.784Z,69.87
2018-11-13T12:09:59.755Z,67.87
2018-11-13T12:10:59.719Z,68.82
2018-11-13T12:11:59.838Z,66.15
2018-11-13T12:12:59.641Z,66.92
2018-11-13T12:13:59.599Z,66.53
2018-11-13T12:14:59.570Z,67.87
2018-11-13T12:15:59.526Z,66.63
2018-11-13T12:16:59.488Z,65.39
2018-11-13T12:17:59.459Z,66.44
2018-11-13T12:18:59.495Z,68.48
2018-11-13T12:19:59.389Z,68.82
2018-11-13T12:20:59.342Z,57.37
2018-11-13T12:21:59.308Z,56.45
2018-11-13T12:22:59.269Z,31.42
2018-11-13T12:23:59.231Z,46.80
2018-11-13T12:24:59.196Z,69.43
2018-11-13T12:25:59.218Z,72.97
2018-11-13T12:26:59.119Z,71.63
2018-11-13T12:27:59.080Z,71.34
2018-11-13T12:28:59.042Z,71.25
2018-11-13T12:29:59.011Z,74.02
2018-11-13T12:30:58.973Z,70.96
2018-11-13T12:31:58.934Z,77.69
2018-11-13T12:32:58.900Z,75.49
2018-11-13T12:33:58.857Z,75.10
2018-11-13T12:34:58.826Z,75.78
2018-11-13T12:35:58.789Z,75.20
2018-11-13T12:36:58.754Z,76.54
2018-11-13T12:37:58.709Z,70.77
2018-11-13T12:38:58.675Z,69.02
2018-11-13T12:39:58.636Z,73.73
2018-11-13T12:40:58.646Z,75.78
2018-11-13T12:41:58.566Z,75.20
2018-11-13T12:42:58.528Z,75.78
2018-11-13T12:43:58.490Z,75.30
2018-11-13T12:44:58.456Z,77.78
2018-11-13T12:45:58.413Z,77.69
2018-11-13T12:46:58.422Z,77.21
2018-11-13T12:47:58.340Z,78.26
2018-11-13T12:48:58.392Z,78.74
2018-11-13T12:49:58.274Z,78.64
2018-11-13T12:50:58.235Z,78.45
2018-11-13T12:51:58.192Z,79.60
2018-11-13T12:52:58.155Z,79.31
2018-11-13T12:53:58.475Z,79.50
2018-11-13T12:54:58.090Z,80.07
2018-11-13T12:55:58.088Z,79.02
2018-11-13T12:56:58.009Z,78.83
2018-11-13T12:57:58.146Z,78.74
2018-11-13T12:58:57.942Z,75.45
2018-11-13T12:59:57.895Z,80.93
2018-11-13T13:00:57.857Z,79.31
2018-11-13T13:01:57.831Z,79.22
2018-11-13T13:02:57.788Z,79.60
2018-11-13T13:03:57.749Z,80.27
2018-11-13T13:04:57.715Z,79.88
2018-11-13T13:05:57.672Z,80.74
2018-11-13T13:06:57.636Z,81.22
2018-11-13T13:07:57.600Z,82.46
2018-11-13T13:08:57.570Z,81.99
2018-11-13T13:09:57.522Z,82.75
2018-11-13T13:10:57.487Z,83.13
2018-11-13T13:11:57.449Z,83.70
2018-11-13T13:12:57.411Z,84.38
2018-11-13T13:13:57.381Z,82.56
2018-11-13T13:14:57.437Z,83.42
2018-11-13T13:15:57.303Z,76.50
2018-11-13T13:16:57.268Z,76.75
2018-11-13T13:17:57.225Z,77.13
2018-11-13T13:18:57.258Z,77.70
2018-11-13T13:19:57.161Z,77.03
2018-11-13T13:20:57.116Z,77.03
2018-11-13T13:21:57.087Z,77.13
2018-11-13T13:22:57.051Z,77.17
2018-11-13T13:23:57.004Z,75.42
2018-11-13T13:24:56.965Z,81.22
2018-11-13T13:25:57.050Z,76.21
2018-11-13T13:26:56.909Z,76.94
2018-11-13T13:27:56.859Z,78.03
2018-11-13T13:28:56.825Z,76.31
2018-11-13T13:29:56.780Z,76.12
2018-11-13T13:30:56.746Z,77.26
2018-11-13T13:31:56.790Z,81.99
2018-11-13T13:32:56.668Z,82.08
2018-11-13T13:33:56.638Z,83.33
2018-11-13T13:34:56.603Z,83.51
2018-11-13T13:35:56.562Z,83.00
2018-11-13T13:36:56.527Z,77.13
2018-11-13T13:37:56.485Z,75.70
2018-11-13T13:38:56.452Z,82.90
2018-11-13T13:39:56.413Z,78.18
2018-11-13T13:40:56.381Z,76.65
2018-11-13T13:41:56.336Z,78.51
2018-11-13T13:42:56.301Z,83.51
2018-11-13T13:43:56.262Z,83.23
2018-11-13T13:44:56.224Z,77.70
2018-11-13T13:45:56.194Z,76.18
2018-11-13T13:46:56.155Z,76.56
2018-11-13T13:47:56.117Z,82.18
2018-11-13T13:48:56.083Z,76.37
2018-11-13T13:49:56.039Z,74.93
2018-11-13T13:50:56.003Z,78.09
2018-11-13T13:51:55.965Z,77.23
2018-11-13T13:52:55.927Z,77.45
2018-11-13T13:53:56.083Z,76.75
2018-11-13T13:54:55.856Z,76.56
2018-11-13T13:55:55.816Z,76.46
2018-11-13T13:56:55.787Z,77.17
2018-11-13T13:57:55.749Z,76.40
2018-11-13T13:58:55.709Z,77.36
2018-11-13T13:59:55.885Z,77.08
2018-11-13T14:00:55.697Z,81.89
2018-11-13T14:01:55.593Z,77.45
2018-11-13T14:02:55.558Z,75.83
2018-11-13T14:03:55.526Z,77.89
2018-11-13T14:04:55.488Z,77.65
2018-11-13T14:05:55.494Z,77.13
2018-11-13T14:06:55.412Z,79.14
2018-11-13T14:07:55.375Z,78.47
2018-11-13T14:08:55.343Z,78.37
2018-11-13T14:09:55.301Z,77.80
2018-11-13T14:10:55.265Z,78.56
2018-11-13T14:11:55.228Z,77.03
2018-11-13T14:12:55.192Z,75.89
2018-11-13T14:13:55.147Z,75.60
2018-11-13T14:14:55.232Z,77.13
2018-11-13T14:15:55.083Z,78.37
2018-11-13T14:16:55.041Z,77.32
2018-11-13T14:17:55.033Z,79.80
2018-11-13T14:18:54.969Z,79.80
2018-11-13T14:19:54.929Z,75.51
2018-11-13T14:20:54.937Z,76.33
2018-11-13T14:21:54.852Z,75.09
2018-11-13T14:22:54.820Z,80.38
2018-11-13T14:23:54.778Z,73.94
2018-11-13T14:24:54.740Z,73.08
2018-11-13T14:25:54.709Z,78.56
2018-11-13T14:26:54.715Z,81.62
2018-11-13T14:27:54.628Z,80.80
2018-11-13T14:28:54.597Z,82.00
2018-11-13T14:29:54.556Z,80.70
2018-11-13T14:30:54.518Z,74.23
2018-11-13T14:31:54.481Z,73.94
2018-11-13T14:32:54.443Z,78.56
2018-11-13T14:33:54.402Z,80.61
2018-11-13T14:34:54.364Z,80.76
2018-11-13T14:35:54.329Z,77.76
2018-11-13T14:36:54.293Z,75.18
2018-11-13T14:37:54.250Z,75.95
2018-11-13T14:38:54.214Z,79.33
2018-11-13T14:39:54.177Z,81.33
2018-11-13T14:40:54.137Z,82.00
2018-11-13T14:41:54.106Z,82.09
2018-11-13T14:42:54.066Z,84.58
2018-11-13T14:43:54.026Z,83.43
2018-11-13T14:44:54.010Z,79.80
2018-11-13T14:45:53.955Z,77.47
2018-11-13T14:46:53.917Z,78.05
2018-11-13T14:47:53.878Z,77.95
2018-11-13T14:48:53.843Z,76.71
2018-11-13T14:49:53.799Z,77.28
2018-11-13T14:50:53.763Z,76.71
2018-11-13T14:51:53.727Z,76.33
2018-11-13T14:52:53.688Z,77.89
2018-11-13T14:53:53.654Z,74.61
2018-11-13T14:54:53.615Z,75.72
2018-11-13T14:55:53.575Z,73.85
2018-11-13T14:56:53.544Z,74.61
2018-11-13T14:57:53.497Z,73.47
2018-11-13T14:58:53.461Z,72.42
2018-11-13T14:59:53.426Z,73.43
2018-11-13T15:00:53.390Z,72.38
2018-11-13T15:01:53.357Z,71.27
2018-11-13T15:02:53.311Z,72.00
2018-11-13T15:03:53.276Z,72.00
2018-11-13T15:04:53.234Z,75.37
2018-11-13T15:05:53.201Z,75.09
2018-11-13T15:06:53.162Z,78.05
2018-11-13T15:07:53.164Z,78.94
2018-11-13T15:08:53.123Z,79.04
2018-11-13T15:09:53.054Z,78.23
2018-11-13T15:10:53.010Z,80.28
2018-11-13T15:11:52.970Z,79.71
2018-11-13T15:12:52.930Z,79.52
2018-11-13T15:13:52.899Z,79.33
2018-11-13T15:14:52.860Z,78.94
2018-11-13T15:15:52.817Z,78.85
2018-11-13T15:16:52.777Z,78.47
2018-11-13T15:17:52.745Z,79.33
2018-11-13T15:18:52.710Z,78.66
2018-11-13T15:19:52.668Z,78.66
2018-11-13T15:20:52.633Z,75.57
2018-11-13T15:21:52.587Z,72.28
2018-11-13T15:22:52.551Z,75.76
2018-11-13T15:23:52.513Z,75.37
2018-11-13T15:24:52.474Z,76.33
2018-11-13T15:25:52.440Z,75.37
2018-11-13T15:26:52.403Z,71.43
2018-11-13T15:27:52.363Z,75.85
2018-11-13T15:28:52.327Z,75.47
2018-11-13T15:29:52.284Z,76.04
2018-11-13T15:30:52.264Z,75.57
2018-11-13T15:31:52.210Z,75.47
2018-11-13T15:32:52.176Z,71.33
2018-11-13T15:33:52.131Z,70.89
2018-11-13T15:34:52.102Z,75.37
2018-11-13T15:35:52.058Z,74.90
2018-11-13T15:36:52.095Z,74.61
2018-11-13T15:37:51.988Z,75.09
2018-11-13T15:38:51.945Z,74.42
2018-11-13T15:39:51.906Z,74.04
2018-11-13T15:40:51.871Z,73.66
2018-11-13T15:41:51.826Z,73.47
2018-11-13T15:42:51.790Z,73.47
2018-11-13T15:43:51.752Z,73.08
2018-11-13T15:44:51.829Z,73.08
2018-11-13T15:45:51.679Z,73.28
2018-11-13T15:46:51.640Z,73.37
2018-11-13T15:47:51.599Z,73.08
2018-11-13T15:48:51.564Z,73.56
2018-11-13T15:49:51.530Z,73.28
2018-11-13T15:50:51.490Z,73.28
2018-11-13T15:51:51.503Z,72.80
2018-11-13T16:04:11.872Z,68.66
2018-11-13T16:05:11.800Z,69.43
2018-11-13T16:06:11.781Z,70.95
2018-11-13T16:07:11.721Z,70.76
2018-11-13T16:08:11.676Z,71.14
2018-11-13T16:09:11.635Z,71.23
2018-11-13T16:10:11.675Z,71.81
2018-11-13T16:11:11.557Z,70.67
2018-11-13T16:12:11.514Z,70.09
2018-11-13T16:13:11.474Z,69.71
2018-11-13T16:14:11.436Z,70.00
2018-11-13T16:15:11.498Z,69.62
2018-11-13T16:16:11.352Z,68.57
2018-11-13T16:17:11.312Z,66.66
2018-11-13T16:18:11.273Z,66.75
2018-11-13T16:19:11.240Z,66.66
2018-11-13T16:20:11.199Z,65.99
2018-11-13T16:21:11.169Z,65.70
2018-11-13T16:22:11.123Z,65.70
2018-11-13T16:23:11.079Z,65.23
2018-11-13T16:24:11.039Z,64.56
2018-11-13T16:25:11.002Z,63.80
2018-11-13T16:26:10.966Z,62.65
2018-11-13T16:27:10.922Z,62.56
2018-11-13T16:28:10.883Z,62.37
2018-11-13T16:29:10.955Z,62.65
2018-11-13T16:30:10.873Z,61.00
2018-11-13T16:31:10.774Z,62.27
2018-11-13T16:32:10.743Z,61.51
2018-11-13T16:33:10.692Z,61.70
2018-11-13T16:34:10.663Z,61.60
2018-11-13T16:35:10.612Z,61.51
2018-11-13T16:36:10.596Z,61.60
2018-11-13T16:37:10.543Z,61.60
2018-11-13T16:38:10.593Z,61.04
2018-11-13T16:39:10.476Z,61.22
2018-11-13T16:40:10.420Z,61.51
2018-11-13T16:41:19.073Z,61.51
2018-11-13T16:43:14.830Z,61.80
2018-11-13T16:44:14.741Z,61.41
2018-11-13T16:45:14.703Z,61.51
2018-11-13T16:46:14.660Z,61.32
2018-11-13T16:47:14.623Z,59.70
2018-11-13T16:48:14.691Z,59.79
2018-11-13T16:49:15.385Z,59.70
2018-11-13T16:50:14.510Z,60.27
2018-11-13T16:51:14.467Z,60.17
2018-11-13T16:52:14.429Z,60.08
2018-11-13T16:53:14.395Z,60.17
2018-11-13T16:54:14.380Z,60.08
2018-11-13T16:55:14.315Z,60.17
2018-11-13T16:56:14.275Z,59.89
2018-11-13T16:57:14.242Z,60.36
2018-11-13T16:58:14.222Z,60.08
2018-11-13T16:59:14.162Z,59.70
2018-11-13T17:00:14.132Z,60.27
2018-11-13T17:01:14.132Z,60.27
2018-11-13T17:02:14.065Z,60.08
2018-11-13T17:03:14.009Z,59.70
2018-11-13T17:04:13.966Z,59.22
2018-11-13T17:05:13.990Z,59.03
2018-11-13T17:06:13.985Z,58.91
2018-11-13T17:07:13.938Z,59.12
2018-11-13T17:08:13.811Z,59.12
2018-11-13T17:09:13.772Z,59.03
2018-11-13T17:10:13.733Z,58.91
2018-11-13T17:11:13.728Z,57.67
2018-11-13T17:12:13.658Z,56.62
2018-11-13T17:13:13.624Z,55.47
2018-11-13T17:14:13.604Z,55.66
2018-11-13T17:15:13.583Z,56.33
2018-11-13T17:16:13.516Z,55.76
2018-11-13T17:17:13.464Z,55.00
2018-11-13T17:18:13.726Z,54.52
2018-11-13T17:19:13.385Z,54.14
2018-11-13T17:20:13.372Z,53.56
2018-11-13T17:21:13.318Z,53.19
2018-11-13T17:22:13.292Z,52.49
2018-11-13T17:23:13.231Z,50.49
2018-11-13T17:24:13.194Z,49.92
2018-11-13T17:25:13.159Z,49.16
2018-11-13T17:26:13.123Z,48.87
2018-11-13T17:27:13.100Z,48.97
2018-11-13T17:28:13.038Z,48.68
2018-11-13T17:29:13.048Z,48.68
2018-11-13T17:30:12.988Z,47.73
2018-11-13T17:31:12.922Z,47.54
2018-11-13T17:32:12.884Z,46.39
2018-11-13T17:33:12.855Z,46.58
2018-11-13T17:34:12.810Z,46.01
2018-11-13T17:35:12.769Z,45.63
2018-11-13T17:36:12.758Z,45.54
2018-11-13T17:37:12.696Z,45.25
2018-11-13T17:38:12.765Z,45.63
2018-11-13T17:39:12.641Z,45.54
2018-11-13T17:40:12.580Z,45.63
2018-11-13T17:41:12.533Z,45.54
2018-11-13T17:42:12.494Z,45.83
2018-11-13T17:43:12.487Z,44.68
2018-11-13T17:44:12.483Z,43.25
2018-11-13T17:45:12.384Z,41.53
2018-11-13T17:46:12.356Z,41.25
2018-11-13T17:47:12.304Z,40.87
2018-11-13T17:48:12.262Z,40.68
2018-11-13T17:49:12.224Z,39.44
2018-11-13T17:50:12.184Z,38.87
2018-11-13T17:51:12.145Z,38.96
2018-11-13T17:52:12.111Z,39.63
2018-11-13T17:53:12.072Z,39.63
2018-11-13T17:54:12.026Z,39.25
2018-11-13T17:55:11.989Z,38.96
2018-11-13T17:56:11.953Z,39.06
2018-11-13T17:57:11.916Z,38.68
2018-11-13T17:58:11.878Z,38.78
2018-11-13T17:59:11.841Z,38.96
2018-11-13T18:00:11.794Z,38.68
2018-11-13T18:01:11.754Z,38.68
2018-11-13T18:02:11.731Z,38.49
2018-11-13T18:03:11.702Z,37.25
2018-11-13T18:04:11.640Z,36.68
2018-11-13T18:05:11.604Z,36.87
2018-11-13T18:06:11.565Z,37.44
2018-11-13T18:07:11.524Z,32.18
2018-11-13T18:08:11.482Z,34.87
2018-11-13T18:09:11.455Z,33.91
2018-11-13T18:10:11.408Z,34.39
2018-11-13T18:11:11.487Z,35.06
2018-11-13T18:12:11.326Z,35.82
2018-11-13T18:13:11.288Z,35.53
2018-11-13T18:14:11.387Z,36.20
2018-11-13T18:15:11.209Z,35.35
2018-11-13T18:16:11.206Z,36.20
2018-11-13T18:17:11.201Z,36.30
2018-11-13T18:18:11.097Z,36.96
2018-11-13T18:19:11.058Z,38.29
2018-11-13T18:20:11.013Z,38.49
2018-11-13T18:21:10.973Z,38.68
2018-11-13T18:22:11.092Z,38.68
2018-11-13T18:23:10.900Z,38.58
2018-11-13T18:24:10.862Z,38.68
2018-11-13T18:25:10.822Z,38.29
2018-11-13T18:26:10.777Z,38.49
2018-11-13T18:27:10.739Z,38.96
2018-11-13T18:28:10.734Z,36.37
2018-11-13T18:29:10.668Z,25.90
2018-11-13T18:30:10.629Z,22.56
2018-11-13T18:31:10.584Z,21.33
2018-11-13T18:32:10.562Z,18.57
2018-11-13T18:33:10.513Z,17.41
2018-11-13T18:34:10.640Z,16.85
2018-11-13T18:35:10.444Z,16.38
2018-11-13T18:36:10.525Z,27.06
2018-11-13T18:37:10.373Z,18.95
2018-11-13T18:38:10.445Z,27.15
2018-11-13T18:39:10.523Z,30.68
2018-11-13T18:40:10.282Z,31.05
2018-11-13T18:41:10.218Z,32.29
2018-11-13T18:42:10.184Z,33.15
2018-11-13T18:43:10.125Z,33.06
2018-11-13T18:44:10.090Z,32.20
2018-11-13T18:45:10.141Z,32.87
2018-11-13T18:46:10.003Z,32.48
2018-11-13T18:47:09.987Z,32.20
2018-11-13T18:48:09.924Z,31.24
2018-11-13T18:49:09.925Z,31.63
2018-11-13T18:50:09.952Z,31.13
2018-11-13T18:51:09.879Z,19.42
2018-11-13T18:52:09.789Z,20.00
2018-11-13T18:53:09.755Z,28.58
2018-11-13T18:54:09.729Z,30.87
2018-11-13T18:55:09.661Z,31.34
2018-11-13T18:56:09.721Z,31.82
2018-11-13T18:57:09.597Z,31.44
2018-11-13T18:58:09.544Z,30.68
2018-11-13T18:59:09.629Z,29.91
2018-11-13T19:00:09.508Z,30.58
2018-11-13T19:01:09.499Z,30.39
2018-11-13T19:02:09.420Z,29.72
2018-11-13T19:03:09.349Z,29.91
2018-11-13T19:04:09.319Z,30.00
2018-11-13T19:05:09.321Z,29.44
2018-11-13T19:06:09.238Z,30.00
2018-11-13T19:07:09.257Z,30.77
2018-11-13T19:08:09.161Z,31.15
2018-11-13T19:09:09.132Z,30.96
2018-11-13T19:10:09.125Z,31.53
2018-11-13T19:11:09.058Z,31.82
2018-11-13T19:12:09.098Z,31.72
2018-11-13T19:13:09.030Z,31.72
2018-11-13T19:14:09.184Z,22.38
2018-11-13T19:15:08.952Z,15.42
2018-11-13T19:16:08.820Z,14.00
2018-11-13T19:17:08.823Z,12.66
2018-11-13T19:18:08.830Z,11.80
2018-11-13T19:19:08.751Z,11.71
2018-11-13T19:20:08.805Z,11.13
2018-11-13T19:21:08.669Z,18.86
2018-11-13T19:22:08.658Z,23.91
2018-11-13T19:23:08.616Z,25.62
2018-11-13T19:24:08.581Z,26.67
2018-11-13T19:25:08.524Z,27.15
2018-11-13T19:26:08.468Z,26.48
2018-11-13T19:27:08.434Z,26.77
2018-11-13T19:28:08.430Z,27.25
2018-11-13T19:29:08.314Z,27.25
2018-11-13T19:30:08.371Z,28.49
2018-11-13T19:31:08.329Z,28.20
2018-11-13T19:32:08.210Z,27.62
2018-11-13T19:33:08.194Z,26.67
2018-11-13T19:34:08.140Z,25.91
2018-11-13T19:38:06.364Z,23.71
2018-11-13T19:38:31.154Z,24.18
2018-11-13T19:39:31.107Z,23.53
2018-11-13T19:40:31.136Z,23.71
2018-11-13T19:41:31.024Z,22.28
2018-11-13T19:42:30.984Z,21.14
2018-11-13T19:43:30.946Z,19.90
2018-11-13T19:46:03.222Z,17.43
2018-11-13T19:47:03.079Z,15.90
2018-11-13T19:48:02.995Z,16.56
2018-11-13T19:49:02.990Z,16.19
2018-11-13T19:50:02.915Z,15.52
2018-11-13T19:51:02.869Z,15.05
2018-11-13T19:52:02.834Z,14.85
2018-11-13T19:53:02.797Z,15.52
2018-11-13T19:54:02.879Z,15.61
2018-11-13T19:55:02.721Z,16.28
2018-11-13T19:56:02.693Z,15.71
2018-11-13T19:57:02.648Z,15.33
2018-11-13T19:58:02.677Z,14.37
2018-11-13T19:59:02.559Z,14.37
2018-11-13T20:00:02.525Z,14.37
2018-11-13T20:01:02.545Z,14.47
2018-11-13T20:02:02.470Z,14.76
2018-11-13T20:03:02.419Z,14.66
2018-11-13T20:04:02.549Z,14.57
2018-11-13T20:05:02.353Z,14.95
2018-11-13T20:06:02.298Z,15.33
2018-11-13T20:07:02.256Z,15.52
2018-11-13T20:08:02.242Z,15.33
2018-11-13T20:09:02.185Z,14.47
2018-11-13T20:10:02.193Z,14.57
2018-11-13T20:11:02.114Z,14.00
2018-11-13T20:12:02.062Z,12.85
2018-11-13T20:13:02.042Z,11.90
2018-11-13T20:14:01.986Z,10.75
2018-11-13T20:15:01.930Z,10.75
2018-11-13T20:16:02.026Z,10.66
2018-11-13T20:17:01.978Z,10.85
2018-11-13T20:18:01.833Z,10.47
2018-11-13T20:19:01.804Z,10.09
2018-11-13T20:20:01.769Z,10.00
2018-11-13T20:21:01.706Z,10.57
2018-11-13T20:22:01.661Z,10.95
2018-11-13T20:23:01.633Z,11.61
2018-11-13T20:24:01.574Z,11.61
2018-11-13T20:25:01.588Z,11.52
2018-11-13T20:26:01.525Z,10.57
2018-11-13T20:27:01.473Z,10.75
2018-11-13T20:28:01.439Z,10.75
2018-11-13T20:29:01.393Z,11.14
2018-11-13T20:30:01.335Z,11.23
2018-11-13T20:31:01.334Z,5.71
2018-11-13T20:32:01.280Z,0.00
2018-11-13T20:33:01.240Z,0.00
2018-11-13T20:34:01.195Z,4.28
2018-11-13T20:35:01.135Z,5.04
2018-11-13T20:36:01.105Z,0.00
2018-11-13T20:37:01.081Z,0.00
2018-11-13T20:38:01.033Z,0.00
2018-11-13T20:39:01.012Z,0.00
2018-11-13T20:40:00.949Z,0.00
2018-11-13T20:41:00.917Z,0.00
2018-11-13T20:42:00.889Z,0.00
2018-11-13T20:43:00.851Z,0.00
2018-11-13T20:44:00.802Z,0.00
2018-11-13T20:45:00.757Z,0.00
2018-11-13T20:46:00.727Z,0.00
2018-11-13T20:47:00.665Z,0.00
2018-11-13T20:48:00.657Z,0.00
2018-11-13T20:49:00.610Z,0.00
2018-11-13T20:50:00.561Z,0.00
2018-11-13T20:51:00.516Z,0.00
2018-11-13T20:52:00.473Z,0.00
2018-11-13T20:53:00.458Z,0.00
2018-11-13T20:54:00.426Z,2.47
2018-11-13T20:55:00.442Z,5.24
2018-11-13T20:56:00.329Z,6.76
2018-11-13T20:57:00.281Z,8.47
2018-11-13T20:58:00.257Z,9.42
2018-11-13T20:59:00.205Z,10.57
2018-11-13T21:00:00.176Z,10.57
2018-11-13T21:01:00.227Z,10.57
2018-11-13T21:02:00.181Z,10.66
2018-11-13T21:03:00.035Z,10.28
2018-11-13T21:04:00.011Z,10.57
2018-11-13T21:04:59.957Z,11.14
2018-11-13T21:05:59.983Z,12.09
2018-11-13T21:06:59.908Z,12.76
2018-11-13T21:07:59.856Z,12.66
2018-11-13T21:08:59.832Z,12.76
2018-11-13T21:09:59.768Z,11.14
2018-11-13T21:11:00.231Z,11.33
2018-11-13T21:11:59.763Z,10.75
2018-11-13T21:12:59.656Z,11.04
2018-11-13T21:13:59.636Z,11.14
2018-11-13T21:14:59.580Z,10.28
2018-11-13T21:15:59.544Z,10.66
2018-11-13T21:16:59.632Z,10.38
2018-11-13T21:17:59.448Z,10.75
2018-11-13T21:18:59.420Z,11.99
2018-11-13T21:19:59.387Z,12.47
2018-11-13T21:20:59.336Z,12.66
2018-11-13T21:21:59.301Z,13.62
2018-11-13T21:22:59.261Z,13.42
2018-11-13T21:23:59.243Z,13.42
2018-11-13T21:24:59.184Z,13.71
2018-11-13T21:25:59.133Z,14.00
2018-11-13T21:26:59.093Z,13.81
2018-11-13T21:27:59.067Z,13.33
2018-11-13T21:28:59.068Z,12.76
2018-11-13T21:29:59.072Z,11.43
2018-11-13T21:30:59.010Z,11.14
2018-11-13T21:31:58.912Z,10.47
2018-11-13T21:32:58.920Z,10.66
2018-11-13T21:33:58.841Z,9.33
2018-11-13T21:34:58.783Z,10.19
2018-11-13T21:35:58.776Z,10.85
2018-11-13T21:36:58.766Z,10.75
2018-11-13T21:37:58.678Z,10.66
2018-11-13T21:38:58.620Z,10.38
2018-11-13T21:39:58.593Z,10.85
2018-11-13T21:40:58.552Z,10.09
2018-11-13T21:41:58.518Z,10.47
2018-11-13T21:42:58.476Z,10.75
2018-11-13T21:43:58.427Z,11.04
2018-11-13T21:44:58.396Z,10.85
2018-11-13T21:45:58.351Z,10.85
2018-11-13T21:46:59.400Z,10.66
2018-11-13T21:47:58.283Z,9.33
2018-11-13T21:48:58.240Z,9.52
2018-11-13T21:49:58.278Z,9.80
2018-11-13T21:50:58.159Z,10.09
2018-11-13T21:51:58.117Z,10.75
2018-11-13T21:52:58.088Z,10.66
2018-11-13T21:53:58.046Z,11.14
2018-11-13T21:54:58.004Z,10.28
2018-11-13T21:55:57.938Z,10.75
2018-11-13T21:56:57.913Z,11.04
2018-11-13T21:57:57.879Z,10.85
2018-11-13T21:58:57.946Z,11.99
2018-11-13T21:59:57.785Z,11.61
2018-11-13T22:00:57.763Z,11.90
2018-11-13T22:01:57.709Z,11.99
2018-11-13T22:02:57.693Z,12.19
2018-11-13T22:03:57.786Z,11.33
2018-11-13T22:04:57.601Z,11.99
2018-11-13T22:05:57.832Z,12.66
2018-11-13T22:06:57.510Z,12.19
2018-11-13T22:07:57.493Z,11.90
2018-11-13T22:20:43.614Z,0.00
2018-11-13T22:21:43.047Z,2.95
2018-11-13T22:22:43.001Z,5.33
2018-11-13T22:23:42.954Z,7.14
2018-11-13T22:24:42.919Z,7.71
2018-11-13T22:25:42.874Z,8.28
2018-11-13T22:26:42.972Z,8.37
2018-11-13T22:27:42.942Z,8.85
2018-11-13T22:28:42.868Z,8.75
2018-11-13T22:29:42.718Z,9.04
2018-11-13T22:30:42.679Z,8.85
2018-11-13T22:31:42.629Z,9.23
2018-11-13T22:32:42.602Z,9.04
2018-11-13T22:33:42.546Z,8.85
2018-11-13T22:34:42.552Z,9.05
2018-11-13T22:35:42.472Z,9.04
2018-11-13T22:36:42.433Z,9.04
2018-11-13T22:37:42.396Z,8.85
2018-11-13T22:38:42.410Z,9.61
2018-11-13T22:39:42.327Z,9.23
2018-11-13T22:40:42.269Z,8.85
2018-11-13T22:41:42.236Z,9.23
2018-11-13T22:42:42.193Z,8.85
2018-11-13T22:43:42.158Z,9.14
2018-11-13T22:44:42.101Z,9.23
2018-11-13T22:45:42.071Z,9.52
2018-11-13T22:46:42.037Z,9.89
2018-11-13T22:47:41.991Z,9.70
2018-11-13T22:48:41.935Z,10.09
2018-11-13T22:49:41.917Z,8.85
2018-11-13T22:50:41.896Z,8.66
2018-11-13T22:51:41.820Z,7.99
2018-11-13T22:52:41.797Z,7.23
2018-11-13T22:53:41.755Z,8.18
2018-11-13T22:54:41.737Z,8.37
2018-11-13T22:55:41.681Z,7.14
2018-11-13T22:56:41.627Z,7.62
2018-11-13T22:57:41.647Z,7.14
2018-11-13T22:58:41.631Z,7.42
2018-11-13T22:59:41.510Z,8.37
2018-11-13T23:00:41.486Z,7.99
2018-11-13T23:01:41.425Z,8.09
2018-11-13T23:02:41.396Z,8.37
2018-11-13T23:03:41.398Z,7.04
2018-11-13T23:04:41.328Z,7.14
2018-11-13T23:05:41.271Z,7.23
2018-11-13T23:06:41.261Z,7.61
2018-11-13T23:07:41.204Z,7.71
2018-11-13T23:08:41.158Z,8.66
2018-11-13T23:09:41.130Z,8.66
2018-11-13T23:10:41.059Z,8.85
2018-11-13T23:11:41.022Z,8.85
2018-11-13T23:12:40.983Z,9.52
2018-11-13T23:13:40.935Z,7.04
2018-11-13T23:14:40.898Z,7.23